createdAt,value
2018-11-02T00:01:58.222Z,84.80
2018-11-02T00:04:26.701Z,85.28
2018-11-02T00:06:56.115Z,86.49
2018-11-02T00:09:40.214Z,88.80
2018-11-02T00:12:09.578Z,88.91
2018-11-02T00:14:37.966Z,89.42
2018-11-02T00:17:06.691Z,89.86
2018-11-02T00:19:35.420Z,89.62
2018-11-02T00:22:05.112Z,91.31
2018-11-02T00:24:33.683Z,88.63
2018-11-02T00:27:02.369Z,86.34
2018-11-02T00:29:32.466Z,86.54
2018-11-02T00:32:00.989Z,85.52
2018-11-02T00:34:29.503Z,86.64
2018-11-02T00:36:57.965Z,85.70
2018-11-02T00:39:26.706Z,85.92
2018-11-02T00:41:55.661Z,85.29
2018-11-02T00:44:24.088Z,85.33
2018-11-02T00:46:53.035Z,84.96
2018-11-02T00:49:22.435Z,84.48
2018-11-02T00:51:50.832Z,83.59
2018-11-02T00:54:23.001Z,83.63
2018-11-02T00:56:51.871Z,82.84
2018-11-02T00:59:20.501Z,82.86
2018-11-02T01:01:48.818Z,82.74
2018-11-02T01:04:17.295Z,82.74
2018-11-02T01:06:46.032Z,83.12
2018-11-02T01:09:14.979Z,82.98
2018-11-02T01:11:43.391Z,82.93
2018-11-02T01:14:11.948Z,83.21
2018-11-02T01:16:41.304Z,83.57
2018-11-02T01:19:10.359Z,83.05
2018-11-02T01:21:39.134Z,83.04
2018-11-02T01:24:07.829Z,83.80
2018-11-02T01:26:36.272Z,83.30
2018-11-02T01:29:04.639Z,83.05
2018-11-02T01:31:34.084Z,83.38
2018-11-02T01:34:02.903Z,83.94
2018-11-02T01:36:31.404Z,83.74
2018-11-02T01:39:00.123Z,84.66
2018-11-02T01:41:30.677Z,83.88
2018-11-02T01:44:00.089Z,83.48
2018-11-02T01:46:29.228Z,83.28
2018-11-02T01:48:57.659Z,83.35
2018-11-02T01:51:26.180Z,83.03
2018-11-02T01:53:54.872Z,83.66
2018-11-02T01:56:23.232Z,84.41
2018-11-02T01:58:51.751Z,82.97
2018-11-02T02:01:20.968Z,82.62
2018-11-02T02:03:49.347Z,83.19
2018-11-02T02:06:17.767Z,83.92
2018-11-02T02:08:46.516Z,83.86
2018-11-02T02:11:14.961Z,83.81
2018-11-02T02:13:44.139Z,83.98
2018-11-02T02:16:12.539Z,83.65
2018-11-02T02:18:40.848Z,83.98
2018-11-02T02:21:09.195Z,83.63
2018-11-02T02:23:37.853Z,83.47
2018-11-02T02:26:07.735Z,83.19
2018-11-02T02:28:36.381Z,84.25
2018-11-02T02:31:04.889Z,84.41
2018-11-02T02:33:34.228Z,84.88
2018-11-02T02:36:02.751Z,84.91
2018-11-02T02:38:31.295Z,85.13
2018-11-02T02:40:59.936Z,85.50
2018-11-02T02:43:28.351Z,85.47
2018-11-02T02:45:56.755Z,86.11
2018-11-02T02:48:25.250Z,86.06
2018-11-02T02:50:53.550Z,85.41
2018-11-02T02:53:22.278Z,84.73
2018-11-02T02:55:52.077Z,85.23
2018-11-02T02:58:20.458Z,84.73
2018-11-02T03:00:48.911Z,84.74
2018-11-02T03:03:17.331Z,83.23
2018-11-02T03:05:46.010Z,82.73
2018-11-02T03:08:15.198Z,83.10
2018-11-02T03:10:43.732Z,82.04
2018-11-02T03:13:12.127Z,81.31
2018-11-02T03:15:40.810Z,80.97
2018-11-02T03:18:09.190Z,81.24
2018-11-02T03:20:37.603Z,80.41
2018-11-02T03:23:06.083Z,80.86
2018-11-02T03:25:34.685Z,80.01
2018-11-02T03:28:03.032Z,80.14
2018-11-02T03:30:32.204Z,79.78
2018-11-02T03:33:00.613Z,79.60
2018-11-02T03:35:29.100Z,79.45
2018-11-02T03:37:57.445Z,79.46
2018-11-02T03:40:25.863Z,80.33
2018-11-02T03:42:54.303Z,79.22
2018-11-02T03:45:23.026Z,79.68
2018-11-02T03:47:51.613Z,79.95
2018-11-02T03:50:19.966Z,79.81
2018-11-02T03:52:48.428Z,81.04
2018-11-02T03:55:17.095Z,81.18
2018-11-02T03:57:45.827Z,82.12
2018-11-02T04:00:14.943Z,82.27
2018-11-02T04:02:43.316Z,83.96
2018-11-02T04:05:11.959Z,84.36
2018-11-02T04:07:40.514Z,84.70
2018-11-02T04:10:10.099Z,84.88
2018-11-02T04:15:19.469Z,85.94
2018-11-02T04:17:47.857Z,86.13
2018-11-02T04:20:16.270Z,86.25
2018-11-02T04:22:44.835Z,86.92
2018-11-02T04:25:13.303Z,87.15
2018-11-02T04:27:42.502Z,87.96
2018-11-02T04:30:11.014Z,88.60
2018-11-02T04:32:39.612Z,88.52
2018-11-02T04:35:09.016Z,89.13
2018-11-02T04:37:37.675Z,88.34
2018-11-02T04:40:08.022Z,88.89
2018-11-02T04:42:36.674Z,88.33
2018-11-02T04:45:05.492Z,87.91
2018-11-02T04:47:33.875Z,87.65
2018-11-02T04:50:02.859Z,87.82
2018-11-02T04:52:31.836Z,88.45
2018-11-02T04:55:00.675Z,89.30
2018-11-02T04:57:29.301Z,89.59
2018-11-02T04:59:58.173Z,89.32
2018-11-02T05:02:27.257Z,88.51
2018-11-02T05:04:56.308Z,87.38
2018-11-02T05:07:25.773Z,88.61
2018-11-02T05:09:54.471Z,87.96
2018-11-02T05:12:23.246Z,88.53
2018-11-02T05:14:52.210Z,88.87
2018-11-02T05:17:20.695Z,89.21
2018-11-02T05:19:49.544Z,88.54
2018-11-02T05:22:18.076Z,86.94
2018-11-02T05:24:46.781Z,87.38
2018-11-02T05:27:15.757Z,87.10
2018-11-02T05:29:44.551Z,87.89
2018-11-02T05:32:13.198Z,88.33
2018-11-02T05:34:41.858Z,88.69
2018-11-02T05:37:10.439Z,88.11
2018-11-02T05:39:39.122Z,87.96
2018-11-02T05:42:07.703Z,87.90
2018-11-02T05:44:36.470Z,88.17
2018-11-02T05:47:06.068Z,87.42
2018-11-02T05:49:35.211Z,88.48
2018-11-02T05:52:04.590Z,88.93
2018-11-02T05:54:33.791Z,88.49
2018-11-02T05:57:02.327Z,87.57
2018-11-02T05:59:30.891Z,86.67
2018-11-02T06:01:59.482Z,86.81
2018-11-02T06:04:29.468Z,86.30
2018-11-02T06:06:57.799Z,86.52
2018-11-02T06:09:26.435Z,87.49
2018-11-02T06:11:54.946Z,85.96
2018-11-02T06:14:23.600Z,86.28
2018-11-02T06:16:52.378Z,87.24
2018-11-02T06:19:21.216Z,86.66
2018-11-02T06:21:50.349Z,87.60
2018-11-02T06:24:19.811Z,86.89
2018-11-02T06:26:48.523Z,86.68
2018-11-02T06:29:17.281Z,85.91
2018-11-02T06:31:45.680Z,86.57
2018-11-02T06:34:14.411Z,85.96
2018-11-02T06:36:42.834Z,85.84
2018-11-02T06:39:12.125Z,85.73
2018-11-02T06:41:40.706Z,85.08
2018-11-02T06:44:09.563Z,85.32
2018-11-02T06:46:37.888Z,84.52
2018-11-02T06:49:07.207Z,86.69
2018-11-02T06:51:35.954Z,86.65
2018-11-02T06:54:04.581Z,86.84
2018-11-02T06:56:33.104Z,86.26
2018-11-02T06:59:01.921Z,86.41
2018-11-02T07:01:30.361Z,84.81
2018-11-02T07:03:58.711Z,83.69
2018-11-02T07:06:27.479Z,84.09
2018-11-02T07:08:56.587Z,84.67
2018-11-02T07:11:25.555Z,84.49
2018-11-02T07:13:55.560Z,84.26
2018-11-02T07:16:24.732Z,84.97
2018-11-02T07:18:53.473Z,85.47
2018-11-02T07:21:22.124Z,84.93
2018-11-02T07:23:50.546Z,84.38
2018-11-02T07:26:18.872Z,84.68
2018-11-02T07:28:48.453Z,83.99
2018-11-02T07:31:17.189Z,83.56
2018-11-02T07:33:45.591Z,83.04
2018-11-02T07:36:13.976Z,83.25
2018-11-02T07:38:42.579Z,82.87
2018-11-02T07:41:11.153Z,82.34
2018-11-02T07:43:39.911Z,82.01
2018-11-02T07:46:08.609Z,81.08
2018-11-02T07:48:37.351Z,80.22
2018-11-02T07:51:05.918Z,79.89
2018-11-02T07:53:34.291Z,79.69
2018-11-02T07:56:05.897Z,79.28
2018-11-02T07:58:34.935Z,79.23
2018-11-02T08:01:03.731Z,79.54
2018-11-02T08:03:32.123Z,78.39
2018-11-02T08:06:00.861Z,76.59
2018-11-02T08:08:29.895Z,75.76
2018-11-02T08:10:58.321Z,74.94
2018-11-02T08:13:26.996Z,75.24
2018-11-02T08:15:56.175Z,73.70
2018-11-02T08:18:25.162Z,73.53
2018-11-02T08:20:53.568Z,74.45
2018-11-02T08:23:22.304Z,73.62
2018-11-02T08:25:50.710Z,72.72
2018-11-02T08:28:19.192Z,73.03
2018-11-02T08:30:47.828Z,74.12
2018-11-02T08:33:16.340Z,73.84
2018-11-02T08:35:44.737Z,73.57
2018-11-02T08:41:30.257Z,71.63
2018-11-02T08:43:58.823Z,71.92
2018-11-02T08:46:27.512Z,73.09
2018-11-02T08:48:57.237Z,72.63
2018-11-02T08:51:25.658Z,72.83
2018-11-02T08:53:54.068Z,73.10
2018-11-02T08:56:22.532Z,72.89
2018-11-02T08:58:51.907Z,72.39
2018-11-02T09:01:20.463Z,72.42
2018-11-02T09:03:49.057Z,72.20
2018-11-02T09:06:17.565Z,72.47
2018-11-02T09:08:46.489Z,72.29
2018-11-02T09:11:14.956Z,71.91
2018-11-02T09:13:43.808Z,72.63
2018-11-02T09:16:12.224Z,71.55
2018-11-02T09:18:41.207Z,71.41
2018-11-02T09:21:10.042Z,70.67
2018-11-02T09:23:41.596Z,69.19
2018-11-02T09:26:10.066Z,68.42
2018-11-02T09:28:38.462Z,68.90
2018-11-02T09:31:07.037Z,67.38
2018-11-02T09:33:35.726Z,66.60
2018-11-02T09:36:04.685Z,65.99
2018-11-02T09:38:33.068Z,65.28
2018-11-02T09:41:01.789Z,64.56
2018-11-02T09:43:30.474Z,65.92
2018-11-02T09:45:58.938Z,66.19
2018-11-02T09:48:27.353Z,65.61
2018-11-02T09:50:57.026Z,66.26
2018-11-02T09:53:25.843Z,65.91
2018-11-02T09:55:54.295Z,66.81
2018-11-02T09:58:22.807Z,66.81
2018-11-02T10:00:51.298Z,65.90
2018-11-02T10:03:20.459Z,65.86
2018-11-02T10:05:48.865Z,66.36
2018-11-02T10:08:17.357Z,65.80
2018-11-02T10:10:46.225Z,66.11
2018-11-02T10:13:14.718Z,65.39
2018-11-02T10:15:44.999Z,65.18
2018-11-02T10:18:13.747Z,64.48
2018-11-02T10:20:42.176Z,64.84
2018-11-02T10:23:10.651Z,63.81
2018-11-02T10:25:39.910Z,64.53
2018-11-02T10:28:08.685Z,64.46
2018-11-02T10:30:38.076Z,64.35
2018-11-02T10:33:06.866Z,64.94
2018-11-02T10:35:35.469Z,65.75
2018-11-02T10:38:04.275Z,65.98
2018-11-02T10:40:35.245Z,64.77
2018-11-02T10:43:09.285Z,65.21
2018-11-02T10:45:41.992Z,65.05
2018-11-02T10:48:10.337Z,65.66
2018-11-02T10:50:38.711Z,66.00
2018-11-02T10:53:07.504Z,65.89
2018-11-02T10:55:35.907Z,66.21
2018-11-02T10:58:06.102Z,64.80
2018-11-02T11:00:40.385Z,64.47
2018-11-02T11:03:09.131Z,64.19
2018-11-02T11:05:37.884Z,62.88
2018-11-02T11:08:06.508Z,62.64
2018-11-02T11:10:35.222Z,62.30
2018-11-02T11:13:04.527Z,60.66
2018-11-02T11:15:33.653Z,62.07
2018-11-02T11:18:03.281Z,61.65
2018-11-02T11:20:31.738Z,61.51
2018-11-02T11:23:00.118Z,60.82
2018-11-02T11:25:29.213Z,60.99
2018-11-02T11:27:58.132Z,60.44
2018-11-02T11:30:26.554Z,60.72
2018-11-02T11:32:55.005Z,60.71
2018-11-02T11:35:23.432Z,61.65
2018-11-02T11:37:52.044Z,60.35
2018-11-02T11:40:22.135Z,60.68
2018-11-02T11:42:50.510Z,61.32
2018-11-02T11:45:20.103Z,60.06
2018-11-02T11:47:49.133Z,60.10
2018-11-02T11:50:20.368Z,60.55
2018-11-02T11:52:49.851Z,60.30
2018-11-02T11:55:18.569Z,59.22
2018-11-02T11:57:47.364Z,58.78
2018-11-02T12:00:20.297Z,58.40
2018-11-02T12:02:49.404Z,59.11
2018-11-02T12:07:56.952Z,59.31
2018-11-02T12:10:26.297Z,58.94
2018-11-02T12:12:54.710Z,59.73
2018-11-02T12:15:24.108Z,59.50
2018-11-02T12:17:52.776Z,60.43
2018-11-02T12:20:27.129Z,60.92
2018-11-02T12:22:58.943Z,61.22
2018-11-02T12:25:27.880Z,60.02
2018-11-02T12:27:56.341Z,60.83
2018-11-02T12:30:24.821Z,60.94
2018-11-02T12:32:53.233Z,60.91
2018-11-02T12:35:22.765Z,60.13
2018-11-02T12:37:51.208Z,60.19
2018-11-02T12:40:21.606Z,61.92
2018-11-02T12:42:51.029Z,61.75
2018-11-02T12:45:20.397Z,61.41
2018-11-02T12:47:49.521Z,61.80
2018-11-02T12:50:21.644Z,61.13
2018-11-02T12:52:51.085Z,61.86
2018-11-02T12:55:20.700Z,62.24
2018-11-02T12:57:49.528Z,62.58
2018-11-02T13:00:20.296Z,63.10
2018-11-02T13:02:50.109Z,62.53
2018-11-02T13:05:18.640Z,63.18
2018-11-02T13:07:47.067Z,62.91
2018-11-02T13:10:16.904Z,63.03
2018-11-02T13:12:45.911Z,63.79
2018-11-02T13:15:16.662Z,64.18
2018-11-02T13:17:46.060Z,63.61
2018-11-02T13:20:14.811Z,63.49
2018-11-02T13:22:44.298Z,64.01
2018-11-02T13:25:13.878Z,64.53
2018-11-02T13:27:42.876Z,64.10
2018-11-02T13:30:14.614Z,64.29
2018-11-02T13:32:43.223Z,63.83
2018-11-02T13:35:14.495Z,63.79
2018-11-02T13:37:44.121Z,64.27
2018-11-02T13:40:13.809Z,64.14
2018-11-02T13:42:43.210Z,64.37
2018-11-02T13:45:12.885Z,63.85
2018-11-02T13:47:41.808Z,63.74
2018-11-02T13:50:10.850Z,64.81
2018-11-02T13:52:39.727Z,64.75
2018-11-02T13:55:09.461Z,64.12
2018-11-02T13:57:38.190Z,64.51
2018-11-02T14:00:09.475Z,64.92
2018-11-02T14:02:39.380Z,65.14
2018-11-02T14:05:10.658Z,64.92
2018-11-02T14:07:39.225Z,65.66
2018-11-02T14:10:10.085Z,65.83
2018-11-02T14:12:39.324Z,66.12
2018-11-02T14:15:11.226Z,65.70
2018-11-02T14:17:40.936Z,65.34
2018-11-02T14:20:10.909Z,64.43
2018-11-02T14:22:39.505Z,65.34
2018-11-02T14:25:11.301Z,65.05
2018-11-02T14:27:40.250Z,66.65
2018-11-02T14:30:11.925Z,67.31
2018-11-02T14:32:40.614Z,65.87
2018-11-02T14:35:09.725Z,65.65
2018-11-02T14:37:38.955Z,66.17
2018-11-02T14:40:08.802Z,65.53
2018-11-02T14:42:38.364Z,66.01
2018-11-02T14:45:09.553Z,66.57
2018-11-02T14:47:38.631Z,66.81
2018-11-02T14:50:08.520Z,66.15
2018-11-02T14:52:37.363Z,66.00
2018-11-02T14:55:07.160Z,66.57
2018-11-02T14:57:35.990Z,66.46
2018-11-02T15:00:06.215Z,66.32
2018-11-02T15:02:34.647Z,66.11
2018-11-02T15:05:03.046Z,65.91
2018-11-02T15:07:31.521Z,65.41
2018-11-02T15:09:59.945Z,64.42
2018-11-02T15:12:28.856Z,65.53
2018-11-02T15:14:57.605Z,64.71
2018-11-02T15:17:26.395Z,64.96
2018-11-02T15:19:55.095Z,65.32
2018-11-02T15:22:23.696Z,66.07
2018-11-02T15:24:52.164Z,66.09
2018-11-02T15:27:20.590Z,66.77
2018-11-02T15:29:49.295Z,67.79
2018-11-02T15:32:17.764Z,66.66
2018-11-02T15:34:46.465Z,66.85
2018-11-02T15:37:14.847Z,67.67
2018-11-02T15:39:44.031Z,67.93
2018-11-02T15:42:12.381Z,68.04
2018-11-02T15:44:41.116Z,69.30
2018-11-02T15:47:09.741Z,68.86
2018-11-02T15:49:38.142Z,68.76
2018-11-02T15:52:06.621Z,69.52
2018-11-02T15:54:34.978Z,68.75
2018-11-02T15:57:03.925Z,68.75
2018-11-02T15:59:32.292Z,69.30
2018-11-02T16:02:01.028Z,69.23
2018-11-02T16:04:29.399Z,70.13
2018-11-02T16:06:58.371Z,70.15
2018-11-02T16:09:26.706Z,70.81
2018-11-02T16:11:55.185Z,69.50
2018-11-02T16:14:24.341Z,69.84
2018-11-02T16:16:53.942Z,70.54
2018-11-02T16:19:22.371Z,70.96
2018-11-02T16:21:51.113Z,71.08
2018-11-02T16:24:19.531Z,71.70
2018-11-02T16:26:49.352Z,71.93
2018-11-02T16:29:17.907Z,72.19
2018-11-02T16:31:46.869Z,72.03
2018-11-02T16:34:15.333Z,72.42
2018-11-02T16:36:43.981Z,72.18
2018-11-02T16:39:13.210Z,72.99
2018-11-02T16:41:42.281Z,73.70
2018-11-02T16:44:11.862Z,74.73
2018-11-02T16:46:40.486Z,73.93
2018-11-02T16:49:09.867Z,73.21
2018-11-02T16:51:38.365Z,73.05
2018-11-02T16:54:07.557Z,73.92
2018-11-02T16:56:35.954Z,74.05
2018-11-02T16:59:04.681Z,74.14
2018-11-02T17:01:33.138Z,74.64
2018-11-02T17:04:01.868Z,74.79
2018-11-02T17:06:31.705Z,75.67
2018-11-02T17:09:00.621Z,75.81
2018-11-02T17:11:29.103Z,74.98
2018-11-02T17:13:57.567Z,75.72
2018-11-02T17:16:26.066Z,75.54
2018-11-02T17:18:54.851Z,74.83
2018-11-02T17:21:23.216Z,75.11
2018-11-02T17:23:51.685Z,75.38
2018-11-02T17:26:20.362Z,74.95
2018-11-02T17:28:48.876Z,75.53
2018-11-02T17:31:17.410Z,75.49
2018-11-02T17:33:45.964Z,75.94
2018-11-02T17:36:14.347Z,76.03
2018-11-02T17:38:42.755Z,77.57
2018-11-02T17:41:11.397Z,75.80
2018-11-02T17:43:41.054Z,76.01
2018-11-02T17:46:10.025Z,74.90
2018-11-02T17:48:38.696Z,75.07
2018-11-02T17:51:07.480Z,74.81
2018-11-02T17:53:36.684Z,75.12
2018-11-02T17:56:05.781Z,74.38
2018-11-02T17:58:34.464Z,74.96
2018-11-02T18:01:02.978Z,74.83
2018-11-02T18:03:31.958Z,74.45
2018-11-02T18:06:00.368Z,75.33
2018-11-02T18:08:30.348Z,75.72
2018-11-02T18:10:59.690Z,75.50
2018-11-02T18:13:28.497Z,75.23
2018-11-02T18:15:58.287Z,75.12
2018-11-02T18:18:28.201Z,75.62
2018-11-02T18:20:57.395Z,76.57
2018-11-02T18:23:26.798Z,76.25
2018-11-02T18:25:55.308Z,76.02
2018-11-02T18:28:24.116Z,75.86
2018-11-02T18:30:53.800Z,75.86
2018-11-02T18:33:23.308Z,75.27
2018-11-02T18:35:52.092Z,75.82
2018-11-02T18:38:21.436Z,76.28
2018-11-02T18:40:50.270Z,76.31
2018-11-02T18:43:20.424Z,76.92
2018-11-02T18:45:48.984Z,76.22
2018-11-02T18:48:19.725Z,76.33
2018-11-02T18:50:49.096Z,76.59
2018-11-02T18:53:19.853Z,76.56
2018-11-02T18:55:49.099Z,77.04
2018-11-02T18:58:18.456Z,78.06
2018-11-02T19:00:47.105Z,78.04
2018-11-02T19:03:15.616Z,77.58
2018-11-02T19:05:46.581Z,77.09
2018-11-02T19:08:19.259Z,76.81
2018-11-02T19:10:48.268Z,76.49
2018-11-02T19:13:17.806Z,75.80
2018-11-02T19:15:47.744Z,76.82
2018-11-02T19:18:17.539Z,75.90
2018-11-02T19:20:46.981Z,78.59
2018-11-02T19:23:15.419Z,77.85
2018-11-02T19:25:44.739Z,77.21
2018-11-02T19:28:13.246Z,76.82
2018-11-02T19:30:42.944Z,76.43
2018-11-02T19:33:12.165Z,77.75
2018-11-02T19:35:42.705Z,75.84
2018-11-02T19:38:12.707Z,76.53
2018-11-02T19:40:41.991Z,76.17
2018-11-02T19:43:10.454Z,76.82
2018-11-02T19:45:39.880Z,78.72
2018-11-02T19:48:08.632Z,77.41
2018-11-02T19:50:37.411Z,77.21
2018-11-02T19:53:06.029Z,77.25
2018-11-02T19:55:34.419Z,77.33
2018-11-02T19:58:03.044Z,78.74
2018-11-02T20:00:32.024Z,80.56
2018-11-02T20:03:00.392Z,79.90
2018-11-02T20:05:28.860Z,79.62
2018-11-02T20:07:57.568Z,81.15
2018-11-02T20:10:26.525Z,80.36
2018-11-02T20:12:55.760Z,81.01
2018-11-02T20:15:24.103Z,80.64
2018-11-02T20:17:53.265Z,79.32
2018-11-02T20:20:22.097Z,78.88
2018-11-02T20:22:50.864Z,77.72
2018-11-02T20:25:19.516Z,79.77
2018-11-02T20:27:47.950Z,78.86
2018-11-02T20:30:18.788Z,78.30
2018-11-02T20:32:47.810Z,78.66
2018-11-02T20:35:16.548Z,81.14
2018-11-02T20:37:45.005Z,80.09
2018-11-02T20:40:16.024Z,81.88
2018-11-02T20:42:45.356Z,81.89
2018-11-02T20:45:14.313Z,80.69
2018-11-02T20:47:48.037Z,81.77
2018-11-02T20:50:17.364Z,82.96
2018-11-02T20:52:46.616Z,81.68
2018-11-02T20:55:16.562Z,80.89
2018-11-02T20:57:45.044Z,80.82
2018-11-02T21:00:19.484Z,81.05
2018-11-02T21:02:47.962Z,81.11
2018-11-02T21:05:17.938Z,82.04
2018-11-02T21:07:47.432Z,83.98
2018-11-02T21:10:17.423Z,83.01
2018-11-02T21:12:46.118Z,82.17
2018-11-02T21:15:16.559Z,81.11
2018-11-02T21:17:46.561Z,82.90
2018-11-02T21:20:17.161Z,82.09
2018-11-02T21:22:45.733Z,83.71
2018-11-02T21:25:14.926Z,83.95
2018-11-02T21:27:44.347Z,84.63
2018-11-02T21:30:17.852Z,83.83
2018-11-02T21:32:47.395Z,84.49
2018-11-02T21:35:16.832Z,84.30
2018-11-02T21:37:45.468Z,84.48
2018-11-02T21:40:15.983Z,84.22
2018-11-02T21:42:45.227Z,84.46
2018-11-02T21:45:15.157Z,85.32
2018-11-02T21:47:44.276Z,85.26
2018-11-02T21:50:13.310Z,85.29
2018-11-02T21:52:42.158Z,86.02
2018-11-02T21:55:11.204Z,86.87
2018-11-02T21:57:39.794Z,85.96
2018-11-02T22:00:14.747Z,85.36
2018-11-02T22:02:43.745Z,85.38
2018-11-02T22:05:13.435Z,86.77
2018-11-02T22:07:44.963Z,86.30
2018-11-02T22:10:14.479Z,86.47
2018-11-02T22:12:43.000Z,85.78
2018-11-02T22:15:12.137Z,87.38
2018-11-02T22:17:41.669Z,84.88
2018-11-02T22:20:11.779Z,86.83
2018-11-02T22:22:40.671Z,86.08
2018-11-02T22:25:10.611Z,86.99
2018-11-02T22:27:39.476Z,87.38
2018-11-02T22:30:12.036Z,85.41
2018-11-02T22:32:40.686Z,88.05
2018-11-02T22:35:09.913Z,87.09
2018-11-02T22:37:38.880Z,87.11
2018-11-02T22:40:09.037Z,85.32
2018-11-02T22:42:37.794Z,84.94
2018-11-02T22:45:07.305Z,84.95
2018-11-02T22:47:35.720Z,84.73
2018-11-02T22:50:05.128Z,84.80
2018-11-02T22:52:33.557Z,84.39
2018-11-02T22:55:02.108Z,84.81
2018-11-02T22:57:30.880Z,85.25
2018-11-02T22:59:59.693Z,85.22
2018-11-02T23:02:28.469Z,85.11
2018-11-02T23:06:00.779Z,86.24
2018-11-02T23:08:29.680Z,86.26
2018-11-02T23:10:58.093Z,86.38
2018-11-02T23:13:26.816Z,86.07
2018-11-02T23:15:55.692Z,86.29
2018-11-02T23:18:24.804Z,85.59
2018-11-02T23:20:53.680Z,84.45
2018-11-02T23:23:22.103Z,84.78
2018-11-02T23:25:51.432Z,83.44
2018-11-02T23:28:20.139Z,83.69
2018-11-02T23:30:48.573Z,83.84
2018-11-02T23:33:17.115Z,82.18
2018-11-02T23:35:47.207Z,82.71
2018-11-02T23:38:15.754Z,83.91
2018-11-02T23:40:44.181Z,82.96
2018-11-02T23:43:12.545Z,81.74
2018-11-02T23:45:41.278Z,82.28
2018-11-02T23:48:15.984Z,82.17
2018-11-02T23:50:45.035Z,82.59
2018-11-02T23:53:14.147Z,82.23
2018-11-02T23:55:43.772Z,82.04
2018-11-02T23:58:12.341Z,82.43
